Time;durP1;ratioP1;P1;durP2;ratioP2;P2;SDS_P1;SDS_P2;PMS_P1;PMS_P2;Temp;Humidity;BMP_temperature;BMP_pressure;BME280_temperature;BME280_humidity;BME280_pressure;Samples;Min_cycle;Max_cycle;Signal;HPM_P1;HPM_P2
2023/10/12 00:02:04;;;;;;;0.73;0.73;;;14.20;99.90;;;;;;6128399;23;20199;-93
2023/10/12 00:04:43;;;;;;;0.20;0.20;;;14.20;99.90;;;;;;6150220;23;20222;-89
2023/10/12 00:07:15;;;;;;;0.87;0.87;;;14.00;99.90;;;;;;6150447;23;20887;-91
2023/10/12 00:09:48;;;;;;;1.67;0.37;;;14.00;99.90;;;;;;6151526;23;20148;-92
2023/10/12 00:12:23;;;;;;;0.77;0.30;;;13.90;99.90;;;;;;6149701;23;20196;-94
2023/10/12 00:14:56;;;;;;;0.33;0.33;;;13.90;99.90;;;;;;6126572;23;20199;-92
2023/10/12 00:17:26;;;;;;;1.63;0.70;;;13.90;99.90;;;;;;6150285;23;20199;-93
2023/10/12 00:19:52;;;;;;;2.47;0.57;;;13.90;99.90;;;;;;6150851;23;20736;-94
2023/10/12 00:22:19;;;;;;;1.63;0.83;;;13.90;99.90;;;;;;6150504;23;20195;-93
2023/10/12 00:24:44;;;;;;;0.60;0.60;;;13.90;99.90;;;;;;6126575;23;20638;-89
2023/10/12 00:27:14;;;;;;;0.10;0.10;;;13.90;99.90;;;;;;6125561;23;20215;-94
2023/10/12 00:29:41;;;;;;;0.40;0.40;;;13.80;99.90;;;;;;6149433;23;20210;-93
2023/10/12 00:32:08;;;;;;;0.93;0.47;;;13.90;99.90;;;;;;6149600;23;20235;-91
2023/10/12 00:34:38;;;;;;;0.30;0.23;;;13.90;99.90;;;;;;6149788;23;20195;-92
2023/10/12 00:37:06;;;;;;;0.20;0.20;;;13.90;99.90;;;;;;6125589;23;20160;-92
2023/10/12 00:40:23;;;;;;;8.90;1.13;;;13.90;99.90;;;;;;6126787;23;20606;-91
2023/10/12 00:42:29;;;;;;;0.47;0.47;;;13.90;99.90;;;;;;6142175;23;20269;-92
2023/10/12 00:44:55;;;;;;;0.50;0.43;;;13.90;99.90;;;;;;6149750;23;20277;-93
2023/10/12 00:50:16;;;;;;;2.73;0.77;;;13.80;99.90;;;;;;6137600;23;20203;-93
2023/10/12 00:52:55;;;;;;;0.40;0.40;;;13.80;99.90;;;;;;6125351;23;20568;-93
2023/10/12 00:55:35;;;;;;;0.20;0.20;;;13.90;99.90;;;;;;6128209;23;20274;-90
2023/10/12 00:58:08;;;;;;;0.10;0.10;;;13.90;99.90;;;;;;6149966;23;20194;-92
2023/10/12 01:00:46;;;;;;;0.20;0.20;;;14.00;99.90;;;;;;6126785;23;20143;-92
2023/10/12 01:03:31;;;;;;;0.93;0.93;;;13.90;99.90;;;;;;6150093;23;20203;-92
2023/10/12 01:08:34;;;;;;;0.20;0.20;;;13.80;99.90;;;;;;6149967;23;20203;-94
2023/10/12 01:11:04;;;;;;;1.50;1.40;;;13.80;99.90;;;;;;6149809;23;20210;-92
2023/10/12 01:13:33;;;;;;;4.43;0.30;;;13.80;99.90;;;;;;6149601;23;20195;-90
2023/10/12 01:16:22;;;;;;;0.40;0.40;;;13.70;99.90;;;;;;6125674;23;20210;-92
2023/10/12 01:18:59;;;;;;;1.20;0.70;;;13.70;99.90;;;;;;6130145;23;20158;-93
2023/10/12 01:21:28;;;;;;;5.60;1.50;;;13.70;99.90;;;;;;6127302;23;20263;-93
2023/10/12 01:24:03;;;;;;;0.63;0.63;;;13.70;99.90;;;;;;6149426;23;20206;-92
2023/10/12 01:26:31;;;;;;;0.30;0.30;;;13.80;99.90;;;;;;6149615;23;20195;-90
2023/10/12 01:28:59;;;;;;;7.10;0.93;;;13.80;99.90;;;;;;6125672;23;20286;-89
2023/10/12 01:31:28;;;;;;;1.60;0.30;;;13.70;99.90;;;;;;6149040;23;20207;-92
2023/10/12 01:33:54;;;;;;;1.73;0.33;;;13.70;99.90;;;;;;6126288;23;20159;-93
2023/10/12 01:36:27;;;;;;;0.57;0.30;;;13.70;99.90;;;;;;6149484;23;20190;-92
2023/10/12 01:39:10;;;;;;;2.07;0.87;;;13.70;99.90;;;;;;6149722;23;20210;-93
2023/10/12 01:41:37;;;;;;;0.37;0.37;;;13.60;99.90;;;;;;6149263;23;20230;-90
2023/10/12 01:44:10;;;;;;;0.97;0.97;;;13.60;99.90;;;;;;6149447;23;20203;-92
2023/10/12 01:46:36;;;;;;;3.13;0.53;;;13.60;99.90;;;;;;6125886;23;20199;-91
2023/10/12 01:49:03;;;;;;;1.33;1.00;;;13.60;99.90;;;;;;6149684;23;20616;-92
2023/10/12 01:51:29;;;;;;;1.97;1.43;;;13.60;99.90;;;;;;6125588;23;20639;-92
2023/10/12 01:53:56;;;;;;;0.37;0.37;;;13.60;99.90;;;;;;6124670;23;20194;-92
2023/10/12 01:56:27;;;;;;;3.23;0.83;;;13.60;99.90;;;;;;6124558;23;20260;-90
2023/10/12 01:58:52;;;;;;;0.37;0.37;;;13.60;99.90;;;;;;6125641;23;20238;-90
2023/10/12 02:01:18;;;;;;;1.70;0.67;;;13.50;99.90;;;;;;6125034;23;20187;-92
2023/10/12 02:03:44;;;;;;;0.30;0.30;;;13.50;99.90;;;;;;6125424;23;20242;-91
2023/10/12 02:06:16;;;;;;;5.60;0.50;;;13.50;99.90;;;;;;6124537;23;20218;-89
2023/10/12 02:08:46;;;;;;;4.07;0.50;;;13.50;99.90;;;;;;6125345;23;20202;-89
2023/10/12 02:13:47;;;;;;;0.47;0.47;;;13.40;99.90;;;;;;6148999;23;20195;-93
2023/10/12 02:16:23;;;;;;;0.90;0.90;;;13.40;99.90;;;;;;6148776;23;20163;-91
2023/10/12 02:18:49;;;;;;;0.60;0.60;;;13.40;99.90;;;;;;6127054;23;20155;-91
2023/10/12 02:21:20;;;;;;;0.30;0.30;;;13.30;99.90;;;;;;6124154;23;20195;-91
2023/10/12 02:26:33;;;;;;;0.37;0.30;;;13.30;99.90;;;;;;6148977;23;20253;-91
2023/10/12 02:31:38;;;;;;;12.03;1.23;;;13.20;99.90;;;;;;6148762;23;20210;-91
2023/10/12 02:34:14;;;;;;;0.40;0.40;;;13.20;99.90;;;;;;6149453;23;20143;-91
2023/10/12 02:36:40;;;;;;;0.17;0.17;;;13.20;99.90;;;;;;6126289;23;20176;-92
2023/10/12 02:39:15;;;;;;;2.17;0.43;;;13.10;99.90;;;;;;6124164;23;20226;-89
2023/10/12 02:41:48;;;;;;;0.37;0.37;;;13.10;99.90;;;;;;6128216;23;20651;-91
2023/10/12 02:44:14;;;;;;;0.27;0.27;;;13.10;99.90;;;;;;6125340;23;20542;-91
2023/10/12 02:46:49;;;;;;;7.33;0.47;;;13.10;99.90;;;;;;6124384;23;20250;-92
2023/10/12 02:49:16;;;;;;;3.17;0.43;;;13.00;99.90;;;;;;6125899;23;20155;-91
2023/10/12 02:51:44;;;;;;;2.73;0.50;;;13.00;99.90;;;;;;6124929;23;20183;-92
2023/10/12 02:54:11;;;;;;;2.10;0.67;;;13.00;99.90;;;;;;6124701;23;20196;-91
2023/10/12 02:56:37;;;;;;;6.20;0.30;;;13.00;99.90;;;;;;6124626;23;20574;-92
2023/10/12 02:59:08;;;;;;;1.00;0.53;;;13.00;99.90;;;;;;6123995;23;20558;-90
2023/10/12 03:01:38;;;;;;;1.53;0.90;;;13.00;99.90;;;;;;6125216;23;20742;-91
2023/10/12 03:04:10;;;;;;;10.53;0.67;;;13.00;99.90;;;;;;6124964;23;20143;-91
2023/10/12 03:06:53;;;;;;;2.20;0.73;;;13.00;99.90;;;;;;6150091;23;20497;-91
2023/10/12 03:09:25;;;;;;;4.37;1.10;;;13.00;99.90;;;;;;6126470;23;20338;-90
2023/10/12 03:11:56;;;;;;;0.60;0.27;;;13.00;99.90;;;;;;6125186;23;20299;-90
2023/10/12 03:14:26;;;;;;;0.50;0.40;;;13.00;99.90;;;;;;6125314;23;20249;-93
2023/10/12 03:16:53;;;;;;;2.50;0.33;;;12.90;99.90;;;;;;6125329;23;20195;-92
2023/10/12 03:19:23;;;;;;;2.57;0.40;;;12.90;99.90;;;;;;6148987;23;20291;-90
2023/10/12 03:21:51;;;;;;;2.17;1.53;;;12.90;99.90;;;;;;6125887;23;20147;-92
2023/10/12 03:24:21;;;;;;;1.90;1.80;;;12.90;99.90;;;;;;6148613;23;20282;-91
2023/10/12 03:29:50;;;;;;;0.60;0.60;;;12.80;99.90;;;;;;6143148;23;20191;-91
2023/10/12 03:32:23;;;;;;;5.10;1.40;;;12.80;99.90;;;;;;6128024;23;20643;-90
2023/10/12 03:37:18;;;;;;;0.60;0.60;;;12.80;99.90;;;;;;6125124;23;20191;-92
2023/10/12 03:44:54;;;;;;;4.27;2.33;;;12.80;99.90;;;;;;6148594;23;20203;-92
2023/10/12 03:52:20;;;;;;;0.20;0.20;;;12.80;99.90;;;;;;6150086;23;20636;-92
2023/10/12 04:03:18;;;;;;;6.20;0.90;;;12.80;99.90;;;;;;6125434;23;20254;-89
2023/10/12 04:05:46;;;;;;;7.87;0.50;;;12.70;99.90;;;;;;6140038;23;20277;-91
2023/10/12 04:08:18;;;;;;;0.57;0.43;;;12.80;99.90;;;;;;6148754;23;20235;-89
2023/10/12 04:19:29;;;;;;;0.30;0.30;;;12.70;99.90;;;;;;6150480;23;20595;-89
2023/10/12 04:21:27;;;;;;;0.83;0.83;;;12.70;99.90;;;;;;6146733;23;20765;-90
2023/10/12 04:24:42;;;;;;;0.27;0.27;;;12.70;99.90;;;;;;6125604;23;20195;-89
2023/10/12 04:27:07;;;;;;;2.50;0.40;;;12.60;99.90;;;;;;6146821;23;20259;-90
2023/10/12 04:29:31;;;;;;;0.40;0.40;;;12.60;99.90;;;;;;6129868;23;20252;-90
2023/10/12 04:32:09;;;;;;;1.47;0.80;;;12.60;99.90;;;;;;6149379;23;20215;-91
2023/10/12 04:34:46;;;;;;;0.97;0.30;;;12.60;99.90;;;;;;6127471;23;20199;-89
2023/10/12 04:37:18;;;;;;;1.50;0.57;;;12.60;99.90;;;;;;6128027;23;20869;-88
2023/10/12 04:39:49;;;;;;;0.20;0.20;;;12.50;99.90;;;;;;6150826;23;20227;-89
2023/10/12 04:42:23;;;;;;;0.50;0.50;;;12.50;99.90;;;;;;6125927;23;20652;-90
2023/10/12 04:47:35;;;;;;;7.23;1.03;;;12.40;99.90;;;;;;6149907;23;20207;-88
2023/10/12 04:50:05;;;;;;;4.80;0.70;;;12.40;99.90;;;;;;6125288;23;20294;-90
2023/10/12 04:52:36;;;;;;;1.90;0.93;;;12.40;99.90;;;;;;6125889;23;20241;-90
2023/10/12 04:57:34;;;;;;;0.40;0.40;;;12.30;99.90;;;;;;6151746;23;20235;-89
2023/10/12 05:02:42;;;;;;;0.47;0.47;;;12.30;99.90;;;;;;6149371;23;20199;-90
2023/10/12 05:05:14;;;;;;;0.30;0.27;;;12.30;99.90;;;;;;6127404;23;20255;-91
2023/10/12 05:07:53;;;;;;;13.93;0.70;;;12.30;99.90;;;;;;6126319;23;20560;-91
2023/10/12 05:10:27;;;;;;;0.40;0.40;;;12.30;99.90;;;;;;6127376;23;20648;-90
2023/10/12 05:12:57;;;;;;;9.13;1.07;;;12.30;99.90;;;;;;6150088;23;20155;-90
2023/10/12 05:15:28;;;;;;;1.13;0.40;;;12.30;99.90;;;;;;6126817;23;20318;-88
2023/10/12 05:17:53;;;;;;;0.33;0.33;;;12.30;99.90;;;;;;6149186;23;20207;-92
2023/10/12 05:20:23;;;;;;;0.87;0.33;;;12.30;99.90;;;;;;6124635;23;20221;-91
2023/10/12 05:22:49;;;;;;;1.03;0.20;;;12.30;99.90;;;;;;6125517;23;20195;-91
2023/10/12 05:25:14;;;;;;;0.53;0.37;;;12.30;99.90;;;;;;6125098;23;20159;-92
2023/10/12 05:28:02;;;;;;;0.97;0.47;;;12.30;99.90;;;;;;6125951;23;20215;-91
2023/10/12 05:30:27;;;;;;;3.43;0.50;;;12.30;99.90;;;;;;6128996;23;20238;-91
2023/10/12 05:32:55;;;;;;;0.30;0.30;;;12.30;99.90;;;;;;6148886;23;20203;-91
2023/10/12 05:35:46;;;;;;;1.90;0.50;;;12.30;99.90;;;;;;6125282;23;20199;-89
2023/10/12 05:38:07;;;;;;;0.97;0.73;;;12.30;99.90;;;;;;6129041;23;20269;-91
2023/10/12 05:40:41;;;;;;;1.40;0.60;;;12.30;99.90;;;;;;6124518;23;20195;-90
2023/10/12 05:43:17;;;;;;;0.17;0.17;;;12.30;99.90;;;;;;6126895;23;20705;-91
2023/10/12 05:45:44;;;;;;;0.43;0.43;;;12.30;99.90;;;;;;6127568;23;20231;-92
2023/10/12 05:48:10;;;;;;;1.00;0.30;;;12.30;99.90;;;;;;6148788;23;20195;-89
2023/10/12 05:50:39;;;;;;;0.40;0.40;;;12.30;99.90;;;;;;6124468;23;20254;-92
2023/10/12 05:53:07;;;;;;;0.60;0.40;;;12.30;99.90;;;;;;6125606;23;20213;-91
2023/10/12 05:55:34;;;;;;;0.97;0.73;;;12.30;99.90;;;;;;6125479;23;20245;-92
2023/10/12 05:58:09;;;;;;;3.30;0.40;;;12.30;99.90;;;;;;6148801;23;20186;-90
2023/10/12 06:00:45;;;;;;;2.30;1.07;;;12.40;99.90;;;;;;6149977;23;20576;-88
2023/10/12 06:03:20;;;;;;;0.17;0.17;;;12.40;99.90;;;;;;6126414;23;20229;-91
2023/10/12 06:05:48;;;;;;;0.20;0.20;;;12.40;99.90;;;;;;6148699;23;20218;-92
2023/10/12 06:08:16;;;;;;;1.43;0.57;;;12.30;99.90;;;;;;6124704;23;20231;-90
2023/10/12 06:10:42;;;;;;;0.97;0.87;;;12.30;99.90;;;;;;6124449;23;20211;-92
2023/10/12 06:13:15;;;;;;;0.53;0.53;;;12.30;99.90;;;;;;6124667;23;20167;-92
2023/10/12 06:15:42;;;;;;;0.13;0.13;;;12.20;99.90;;;;;;6149718;23;20636;-88
2023/10/12 06:18:13;;;;;;;0.70;0.53;;;12.20;99.90;;;;;;6148876;23;20211;-94
2023/10/12 06:20:42;;;;;;;1.80;0.83;;;12.30;99.90;;;;;;6124615;23;20251;-90
2023/10/12 06:23:08;;;;;;;0.23;0.23;;;12.30;99.90;;;;;;6124621;23;20206;-89
2023/10/12 06:25:38;;;;;;;3.00;0.70;;;12.30;99.90;;;;;;6148663;23;20195;-90
2023/10/12 06:28:16;;;;;;;1.43;1.27;;;12.30;99.90;;;;;;6148750;23;20166;-87
2023/10/12 06:30:46;;;;;;;0.43;0.40;;;12.30;99.90;;;;;;6126603;23;20178;-90
2023/10/12 06:33:14;;;;;;;2.00;1.03;;;12.50;99.90;;;;;;6149150;23;20199;-89
2023/10/12 06:36:00;;;;;;;1.00;0.50;;;12.60;99.90;;;;;;6150018;23;20595;-92
2023/10/12 06:38:48;;;;;;;0.40;0.40;;;12.70;99.90;;;;;;6148783;23;20206;-90
2023/10/12 06:41:28;;;;;;;0.73;0.50;;;12.90;99.90;;;;;;6148884;23;20206;-92
2023/10/12 06:43:57;;;;;;;1.53;0.53;;;12.90;99.90;;;;;;6126808;23;20229;-89
2023/10/12 06:46:34;;;;;;;0.80;0.80;;;13.00;99.90;;;;;;6148905;23;20245;-92
2023/10/12 06:49:05;;;;;;;1.27;1.17;;;13.10;99.90;;;;;;6125488;23;20251;-93
2023/10/12 06:51:31;;;;;;;3.20;0.60;;;13.30;99.90;;;;;;6125672;23;20306;-92
2023/10/12 06:54:08;;;;;;;1.07;0.70;;;13.50;99.90;;;;;;6123854;23;20648;-91
2023/10/12 06:56:39;;;;;;;0.30;0.30;;;13.80;99.90;;;;;;6126833;23;20659;-91
2023/10/12 07:04:15;;;;;;;4.13;1.07;;;14.60;99.90;;;;;;6150150;23;20210;-91
2023/10/12 07:07:07;;;;;;;1.53;0.63;;;14.70;99.90;;;;;;6149269;23;20179;-92
2023/10/12 07:09:39;;;;;;;11.83;1.63;;;15.00;99.90;;;;;;6148783;23;20202;-92
2023/10/12 07:12:11;;;;;;;10.57;0.93;;;15.30;99.90;;;;;;6148794;23;20211;-93
2023/10/12 07:14:42;;;;;;;7.67;0.37;;;15.70;99.90;;;;;;6148290;23;20237;-89
2023/10/12 07:17:09;;;;;;;1.40;1.27;;;16.00;99.90;;;;;;6124396;23;20199;-94
2023/10/12 07:19:46;;;;;;;1.17;0.97;;;16.20;99.90;;;;;;6126187;23;20199;-93
2023/10/12 07:22:18;;;;;;;0.60;0.60;;;16.40;99.90;;;;;;6150338;23;20220;-94
2023/10/12 07:24:56;;;;;;;2.23;1.10;;;16.50;99.90;;;;;;6127917;23;20251;-92
2023/10/12 07:27:26;;;;;;;5.13;0.80;;;16.50;99.90;;;;;;6148497;23;20605;-90
2023/10/12 07:30:30;;;;;;;2.63;1.13;;;16.60;99.90;;;;;;6146429;23;20198;-91
2023/10/12 07:32:56;;;;;;;4.53;1.03;;;16.50;99.90;;;;;;6147481;23;20629;-92
2023/10/12 07:35:32;;;;;;;1.70;0.60;;;16.40;99.90;;;;;;6124030;23;20191;-90
2023/10/12 07:38:02;;;;;;;0.60;0.60;;;16.40;99.90;;;;;;6123507;23;20210;-92
2023/10/12 07:40:36;;;;;;;1.53;0.83;;;16.40;99.90;;;;;;6146947;23;20262;-91
2023/10/12 07:43:06;;;;;;;0.47;0.23;;;16.40;99.90;;;;;;6124123;23;20156;-94
2023/10/12 07:45:47;;;;;;;0.60;0.57;;;16.80;99.90;;;;;;6126036;23;20198;-92
2023/10/12 07:49:22;;;;;;;2.60;0.50;;;16.80;99.90;;;;;;6149210;23;20195;-92
2023/10/12 07:51:15;;;;;;;2.53;0.60;;;17.30;99.90;;;;;;6144190;23;20245;-91
2023/10/12 07:53:45;;;;;;;1.47;0.70;;;17.40;99.90;;;;;;6127031;23;20195;-89
2023/10/12 07:56:17;;;;;;;0.97;0.80;;;17.50;99.90;;;;;;6148993;23;20210;-92
2023/10/12 07:58:59;;;;;;;0.47;0.47;;;17.60;99.90;;;;;;6125181;23;20191;-88
2023/10/12 08:01:39;;;;;;;2.30;0.53;;;17.60;99.90;;;;;;6127606;23;20711;-92
2023/10/12 08:06:53;;;;;;;17.73;1.17;;;17.60;99.90;;;;;;6130570;23;20152;-91
2023/10/12 08:09:39;;;;;;;4.03;0.97;;;17.50;99.90;;;;;;6124259;23;20218;-91
2023/10/12 08:12:24;;;;;;;1.13;0.67;;;17.40;99.90;;;;;;6128351;23;20297;-94
2023/10/12 08:14:53;;;;;;;7.03;1.40;;;17.30;99.90;;;;;;6128067;23;20730;-91
2023/10/12 08:17:26;;;;;;;1.67;0.77;;;17.30;99.90;;;;;;6125399;23;20210;-93
2023/10/12 08:22:38;;;;;;;2.83;1.07;;;17.20;99.90;;;;;;6128851;23;20191;-92
2023/10/12 08:25:04;;;;;;;3.87;0.73;;;17.10;99.90;;;;;;6125177;23;20890;-90
2023/10/12 08:27:52;;;;;;;1.40;0.50;;;17.10;99.90;;;;;;6125541;23;20171;-90
2023/10/12 08:30:43;;;;;;;0.70;0.60;;;17.10;99.90;;;;;;6128326;23;20203;-92
2023/10/12 08:33:14;;;;;;;3.77;0.90;;;17.10;99.90;;;;;;6148693;23;20214;-92
2023/10/12 08:36:29;;;;;;;0.83;0.80;;;17.10;99.90;;;;;;6124932;23;20207;-89
2023/10/12 08:38:40;;;;;;;1.90;0.97;;;17.10;99.90;;;;;;6117741;23;20278;-90
2023/10/12 08:41:21;;;;;;;2.37;1.53;;;17.00;99.90;;;;;;6127597;23;20191;-90
2023/10/12 08:43:48;;;;;;;0.73;0.70;;;17.10;99.90;;;;;;6149742;23;20214;-93
2023/10/12 08:49:17;;;;;;;2.10;0.70;;;17.30;99.90;;;;;;6148116;23;20143;-92
2023/10/12 08:52:04;;;;;;;1.43;0.77;;;17.40;99.90;;;;;;6108659;23;20175;-92
2023/10/12 08:54:41;;;;;;;0.87;0.60;;;17.60;99.90;;;;;;6128979;23;20199;-91
2023/10/12 08:57:38;;;;;;;0.60;0.60;;;17.70;99.90;;;;;;6148272;23;20199;-90
2023/10/12 09:00:23;;;;;;;1.60;0.67;;;17.80;99.90;;;;;;6148027;23;20199;-89
2023/10/12 09:02:58;;;;;;;0.30;0.30;;;17.80;99.90;;;;;;6148939;23;20188;-91
2023/10/12 09:05:29;;;;;;;0.40;0.40;;;17.20;99.90;;;;;;6123925;23;20199;-92
2023/10/12 09:10:49;;;;;;;1.43;0.70;;;17.20;99.90;;;;;;6148826;23;20622;-91
2023/10/12 09:13:22;;;;;;;0.63;0.57;;;17.40;99.90;;;;;;6127143;23;20189;-91
2023/10/12 09:15:55;;;;;;;0.57;0.50;;;17.40;99.90;;;;;;6148969;23;20505;-91
2023/10/12 09:18:24;;;;;;;2.90;0.60;;;17.30;99.90;;;;;;6148356;23;20195;-89
2023/10/12 09:23:31;;;;;;;4.40;0.57;;;17.40;99.90;;;;;;6148875;23;20199;-91
2023/10/12 09:28:58;;;;;;;0.73;0.50;;;16.80;99.90;;;;;;6148780;23;20202;-90
2023/10/12 09:36:28;;;;;;;3.90;0.50;;;16.50;99.90;;;;;;6149307;23;20206;-90
2023/10/12 09:38:56;;;;;;;0.40;0.40;;;16.50;99.90;;;;;;6122764;23;20310;-93
2023/10/12 09:41:29;;;;;;;2.37;1.13;;;16.60;99.90;;;;;;6148097;23;20536;-89
2023/10/12 09:44:00;;;;;;;0.37;0.37;;;16.80;99.90;;;;;;6123958;23;20199;-90
2023/10/12 09:46:28;;;;;;;0.40;0.40;;;17.00;99.90;;;;;;6149323;23;20269;-92
2023/10/12 09:49:02;;;;;;;4.53;0.77;;;17.00;99.90;;;;;;6125396;23;20560;-88
2023/10/12 09:51:35;;;;;;;4.53;0.80;;;17.10;99.90;;;;;;6124859;23;20650;-90
2023/10/12 09:54:15;;;;;;;3.60;0.40;;;16.90;99.90;;;;;;6147730;23;20203;-90
2023/10/12 09:56:46;;;;;;;0.57;0.57;;;16.60;99.90;;;;;;6147752;23;20199;-90
2023/10/12 09:59:18;;;;;;;2.27;0.53;;;16.60;99.90;;;;;;6147810;23;20303;-90
2023/10/12 10:01:50;;;;;;;0.47;0.43;;;16.80;99.90;;;;;;6149236;23;20195;-91
2023/10/12 10:07:18;;;;;;;3.73;0.93;;;17.00;99.90;;;;;;6149453;23;20229;-92
2023/10/12 10:09:53;;;;;;;0.63;0.53;;;17.40;99.90;;;;;;6149395;23;20187;-90
2023/10/12 10:12:22;;;;;;;1.70;0.37;;;17.80;99.90;;;;;;6148897;23;20198;-90
2023/10/12 10:14:59;;;;;;;0.60;0.60;;;18.70;99.90;;;;;;6149094;23;20204;-92
2023/10/12 10:17:36;;;;;;;3.10;0.57;;;19.70;99.90;;;;;;6148849;23;20223;-92
2023/10/12 10:22:59;;;;;;;4.43;0.63;;;22.60;99.90;;;;;;6150117;23;20190;-90
2023/10/12 10:25:35;;;;;;;0.63;0.43;;;24.10;99.90;;;;;;6139524;23;20542;-94
2023/10/12 10:28:09;;;;;;;2.20;0.60;;;24.50;99.90;;;;;;6124711;23;20476;-91
2023/10/12 10:30:41;;;;;;;0.70;0.60;;;24.70;99.90;;;;;;6146116;23;20206;-93
2023/10/12 10:33:17;;;;;;;3.53;0.87;;;24.20;99.90;;;;;;6122646;23;20278;-91
2023/10/12 10:36:17;;;;;;;4.83;1.30;;;25.00;99.90;;;;;;6148025;23;20195;-89
2023/10/12 10:39:08;;;;;;;0.30;0.30;;;25.90;99.90;;;;;;6147657;23;20199;-93
2023/10/12 10:44:21;;;;;;;1.87;0.67;;;25.90;99.90;;;;;;6148141;23;20651;-89
2023/10/12 10:46:57;;;;;;;3.60;1.02;;;26.40;99.90;;;;;;6145794;23;20195;-89
2023/10/12 10:49:30;;;;;;;2.13;0.68;;;26.50;99.90;;;;;;6145468;23;20203;-90
2023/10/12 10:54:31;;;;;;;1.95;0.80;;;27.10;99.90;;;;;;6148947;23;20151;-89
2023/10/12 10:56:59;;;;;;;1.27;0.73;;;27.30;99.90;;;;;;6146927;23;20217;-90
2023/10/12 10:59:25;;;;;;;5.65;1.00;;;26.20;99.90;;;;;;6123477;23;20663;-89
2023/10/12 11:01:52;;;;;;;0.77;0.60;;;25.70;99.90;;;;;;6147144;23;20277;-89
2023/10/12 11:07:04;;;;;;;2.17;0.70;;;25.00;99.90;;;;;;6148153;23;20210;-90
2023/10/12 11:10:09;;;;;;;2.25;1.25;;;24.80;99.90;;;;;;6122492;23;20624;-90
2023/10/12 11:12:31;;;;;;;2.05;0.90;;;24.30;99.90;;;;;;6147280;23;20502;-90
2023/10/12 11:15:00;;;;;;;1.88;0.73;;;23.70;99.90;;;;;;6146274;23;20187;-93
2023/10/12 11:17:35;;;;;;;0.65;0.57;;;22.90;99.90;;;;;;6146123;23;20237;-89
2023/10/12 11:20:08;;;;;;;0.75;0.60;;;21.90;99.90;;;;;;6125139;23;20711;-91
2023/10/12 11:22:37;;;;;;;4.10;0.63;;;20.80;99.90;;;;;;6125873;23;20198;-90
2023/10/12 11:25:05;;;;;;;2.40;0.57;;;20.00;99.90;;;;;;6150066;23;20287;-90
2023/10/12 11:27:32;;;;;;;4.65;0.60;;;19.20;99.90;;;;;;6150635;23;20214;-91
2023/10/12 11:30:06;;;;;;;1.80;1.17;;;18.90;99.90;;;;;;6150509;23;20171;-92
2023/10/12 11:32:51;;;;;;;3.77;1.53;;;18.80;99.90;;;;;;6149682;23;20216;-92
2023/10/12 11:35:17;;;;;;;1.17;1.03;;;18.60;99.90;;;;;;6149966;23;20199;-90
2023/10/12 11:37:43;;;;;;;0.70;0.53;;;18.40;99.90;;;;;;6125100;23;20199;-93
2023/10/12 11:40:09;;;;;;;1.30;1.20;;;18.40;99.90;;;;;;6125228;23;20281;-92
2023/10/12 11:42:52;;;;;;;1.57;0.50;;;18.30;99.90;;;;;;6125852;23;20588;-91
2023/10/12 11:45:18;;;;;;;6.00;0.70;;;18.50;99.90;;;;;;6150831;23;20443;-92
2023/10/12 11:47:44;;;;;;;3.53;0.80;;;18.10;99.90;;;;;;6124822;23;20560;-92
2023/10/12 11:50:11;;;;;;;0.50;0.50;;;17.80;99.90;;;;;;6125098;23;20191;-92
2023/10/12 11:52:39;;;;;;;1.23;0.50;;;17.90;99.90;;;;;;6125956;23;20278;-91
2023/10/12 11:55:06;;;;;;;2.33;0.43;;;18.00;99.90;;;;;;6125490;23;20529;-92
2023/10/12 11:57:41;;;;;;;7.40;2.40;;;17.80;99.90;;;;;;6149357;23;20159;-92
2023/10/12 12:00:55;;;;;;;3.47;0.67;;;18.00;99.90;;;;;;6150002;23;20594;-92
2023/10/12 12:02:59;;;;;;;0.43;0.43;;;17.90;99.90;;;;;;6139537;23;20189;-92
2023/10/12 12:05:33;;;;;;;3.03;0.90;;;17.90;99.90;;;;;;6125867;23;20530;-91
2023/10/12 12:08:10;;;;;;;0.83;0.53;;;17.40;99.90;;;;;;6150149;23;20199;-91
2023/10/12 12:10:44;;;;;;;0.77;0.20;;;17.00;99.90;;;;;;6125805;23;20207;-90
2023/10/12 12:13:12;;;;;;;0.93;0.50;;;17.00;99.90;;;;;;6150161;23;20707;-91
2023/10/12 12:15:44;;;;;;;1.93;0.40;;;17.20;99.90;;;;;;6126002;23;20604;-89
2023/10/12 12:18:17;;;;;;;2.20;0.70;;;17.30;99.90;;;;;;6127230;23;20151;-89
2023/10/12 12:20:44;;;;;;;4.77;0.80;;;17.30;99.90;;;;;;6149731;23;20236;-91
2023/10/12 12:23:11;;;;;;;0.50;0.50;;;17.20;99.90;;;;;;6124888;23;20206;-91
2023/10/12 12:25:40;;;;;;;1.47;1.03;;;17.00;99.90;;;;;;6149664;23;20226;-91
2023/10/12 12:28:14;;;;;;;3.03;0.73;;;16.90;99.90;;;;;;6149397;23;20203;-90
2023/10/12 12:30:51;;;;;;;6.10;0.83;;;16.90;99.90;;;;;;6148878;23;20175;-90
2023/10/12 12:33:17;;;;;;;1.10;0.90;;;16.80;99.90;;;;;;6150032;23;20144;-90
2023/10/12 12:35:47;;;;;;;1.60;0.80;;;16.50;99.90;;;;;;6149538;23;20631;-90
2023/10/12 12:40:59;;;;;;;1.77;0.77;;;16.60;99.90;;;;;;6150030;23;20246;-89
2023/10/12 12:43:29;;;;;;;0.40;0.40;;;16.60;99.90;;;;;;6125773;23;20203;-89
2023/10/12 12:45:54;;;;;;;0.40;0.40;;;16.50;99.90;;;;;;6150077;23;20238;-90
2023/10/12 12:48:20;;;;;;;1.37;1.00;;;16.60;99.90;;;;;;6125447;23;20218;-90
2023/10/12 12:50:49;;;;;;;3.10;1.23;;;16.60;99.90;;;;;;6124703;23;20206;-90
2023/10/12 12:53:18;;;;;;;2.93;0.73;;;16.80;99.90;;;;;;6125312;23;20539;-90
2023/10/12 12:55:46;;;;;;;4.30;0.97;;;17.00;99.90;;;;;;6149870;23;20539;-90
2023/10/12 12:58:17;;;;;;;1.07;0.47;;;16.80;99.90;;;;;;6125176;23;20375;-91
2023/10/12 13:00:46;;;;;;;3.70;0.60;;;16.60;99.90;;;;;;6149496;23;20218;-90
2023/10/12 13:03:16;;;;;;;0.97;0.67;;;16.60;99.90;;;;;;6126164;23;20191;-88
2023/10/12 13:05:42;;;;;;;1.23;0.80;;;16.50;99.90;;;;;;6149270;23;20222;-90
2023/10/12 13:08:11;;;;;;;3.53;0.47;;;16.40;99.90;;;;;;6148949;23;20207;-91
2023/10/12 13:10:40;;;;;;;1.50;0.50;;;16.20;99.90;;;;;;6124370;23;20666;-90
2023/10/12 13:13:06;;;;;;;1.20;0.37;;;16.20;99.90;;;;;;6124639;23;20187;-91
2023/10/12 13:15:32;;;;;;;2.17;0.80;;;16.20;99.90;;;;;;6125197;23;20170;-90
2023/10/12 13:17:59;;;;;;;1.40;0.70;;;16.10;99.90;;;;;;6149240;23;20159;-89
2023/10/12 13:20:30;;;;;;;0.27;0.27;;;16.20;99.90;;;;;;6149189;23;20195;-87
2023/10/12 13:22:56;;;;;;;4.03;0.73;;;16.20;99.90;;;;;;6125696;23;20206;-86
2023/10/12 13:25:22;;;;;;;2.47;1.47;;;16.40;99.90;;;;;;6124421;23;20195;-86
2023/10/12 13:27:51;;;;;;;6.37;0.53;;;16.30;99.90;;;;;;6149197;23;24863;-86
2023/10/12 13:30:18;;;;;;;1.07;0.63;;;16.10;99.90;;;;;;6151426;23;20911;-87
2023/10/12 13:32:47;;;;;;;3.20;0.83;;;16.10;99.90;;;;;;6148991;23;20200;-87
2023/10/12 13:35:31;;;;;;;3.77;1.27;;;16.20;99.90;;;;;;6150045;23;20192;-87
2023/10/12 13:38:04;;;;;;;1.27;0.63;;;16.10;99.90;;;;;;6128467;23;20194;-87
2023/10/12 13:40:30;;;;;;;3.30;1.07;;;16.00;99.90;;;;;;6124931;23;20206;-85
2023/10/12 13:43:06;;;;;;;4.23;0.37;;;16.00;99.90;;;;;;6150400;23;20199;-87
2023/10/12 13:45:33;;;;;;;0.30;0.30;;;15.90;99.90;;;;;;6148975;23;20160;-88
2023/10/12 13:47:59;;;;;;;0.30;0.30;;;16.00;99.90;;;;;;6149736;23;20195;-87
2023/10/12 13:50:25;;;;;;;1.60;0.90;;;16.00;99.90;;;;;;6148656;23;20203;-87
2023/10/12 13:52:53;;;;;;;0.47;0.40;;;16.00;99.90;;;;;;6149406;23;20200;-87
2023/10/12 13:55:19;;;;;;;3.60;1.17;;;16.00;99.90;;;;;;6125041;23;20195;-87
2023/10/12 13:57:51;;;;;;;2.17;0.57;;;15.90;99.90;;;;;;6148599;23;20170;-87
2023/10/12 14:00:33;;;;;;;1.77;0.70;;;15.90;99.90;;;;;;6149039;23;20154;-85
2023/10/12 14:03:10;;;;;;;0.60;0.50;;;15.80;99.90;;;;;;6149184;23;20207;-87
2023/10/12 14:05:40;;;;;;;0.83;0.60;;;15.70;99.90;;;;;;6126026;23;20203;-87
2023/10/12 14:08:12;;;;;;;7.07;1.20;;;15.60;99.90;;;;;;6148205;23;20195;-86
2023/10/12 14:10:45;;;;;;;0.60;0.60;;;15.60;99.90;;;;;;6148541;23;20265;-89
2023/10/12 14:13:13;;;;;;;5.00;0.70;;;15.60;99.90;;;;;;6148608;23;20562;-86
2023/10/12 14:15:47;;;;;;;1.50;0.30;;;15.50;99.90;;;;;;6124711;23;20156;-88
2023/10/12 14:18:16;;;;;;;0.40;0.40;;;15.50;99.90;;;;;;6149389;23;20197;-91
2023/10/12 14:20:46;;;;;;;1.80;0.60;;;15.40;99.90;;;;;;6124881;23;20234;-90
2023/10/12 14:23:13;;;;;;;1.60;0.53;;;15.30;99.90;;;;;;6149425;23;20278;-91
2023/10/12 14:25:46;;;;;;;0.87;0.57;;;15.20;99.90;;;;;;6149396;23;20643;-91
2023/10/12 14:28:17;;;;;;;3.00;0.73;;;15.20;99.90;;;;;;6148987;23;20256;-91
2023/10/12 14:30:50;;;;;;;0.77;0.47;;;15.20;99.90;;;;;;6125250;23;20180;-91
2023/10/12 14:33:19;;;;;;;0.97;0.87;;;15.10;99.90;;;;;;6149578;23;20658;-90
2023/10/12 14:35:45;;;;;;;4.27;0.80;;;15.10;99.90;;;;;;6148863;23;20539;-92
2023/10/12 14:38:14;;;;;;;0.23;0.20;;;15.00;99.90;;;;;;6125506;23;20203;-90
2023/10/12 14:40:46;;;;;;;0.87;0.80;;;15.00;99.90;;;;;;6149091;23;20206;-87
2023/10/12 14:43:14;;;;;;;7.53;0.70;;;15.00;99.90;;;;;;6149561;23;20515;-88
2023/10/12 14:46:01;;;;;;;1.23;0.60;;;14.90;99.90;;;;;;6171279;23;20159;-90
2023/10/12 14:48:27;;;;;;;1.80;0.50;;;14.90;99.90;;;;;;6148532;23;20187;-92